Red Lodge, MT (59068)

4:19 AM MDT on August 23, 2014 (GMT -0600)
Tipi Village Sub-Division | Change Station
CLOSE
Current Station
Personal Weather Station
Location: Red Lodge, MT
Elevation: 5886 ft
Nearby Weather Stations

Elev 5886 ft 45.17 °N, 109.27 °W | Updated 4 minutes ago

Rain
Rain
49.7 °F
Feels Like 49 °F
N
4.0
Wind Variable Wind from NW
Gusts 9.0 mph

Today
High -- | Low -- °F
--% Chance of Precip.
Yesterday
High -- | Low -- °F
Precip. -- in
6:28 AM 8:10 PM
Waning Crescent, 4% visible
Pressure 29.98 in
Visibility 10.0 miles
Clouds Few 2000 ft
Scattered Clouds 3000 ft
Mostly Cloudy 3700 ft
Windchill 49 °F
Dew Point 48 °F
Humidity 95%
Rainfall 0.04 in
Snow Depth Not available.
UV 0 out of 12
Pollen 3.80 out of 12
Air Quality Not available.
Flu Activity Not available.
METAR KCOD 231015Z AUTO 02003KT 10SM FEW020 SCT030 BKN037 12/11 A2998 RMK AO1 P0001

More Conditions Fewer Conditions

Pressure 29.98 in
Visibility 10.0 miles
Clouds Few 2000 ft
Scattered Clouds 3000 ft
Mostly Cloudy 3700 ft
Windchill 49 °F
Dew Point 48 °F
Humidity 95%
Rainfall 0.04 in
Snow Depth Not available.
UV 0 out of 12
Pollen 3.80 out of 12
Air Quality Not available.
Flu Activity Not available.
METAR KCOD 231015Z AUTO 02003KT 10SM FEW020 SCT030 BKN037 12/11 A2998 RMK AO1 P0001

More Conditions Fewer Conditions

10-Day Weather Forecast

Almanac

Astronomy

Aug. 23, 2014 Rise Set
Actual Time 6:28 AM MDT 8:10 PM MDT
Civil Twilight 5:56 AM MDT 8:41 PM MDT
Nautical Twilight 5:18 AM MDT 9:19 PM MDT
Astronomical Twilight 4:37 AM MDT 10:00 PM MDT
Moon 4:45 AM MDT 6:57 PM MDT
Length of Visible Light 14h 44m
Length of Day
13h 42m
Tomorrow will be 2m 56s shorter.
Waning Crescent, 4% of the Moon is Illuminated
Today
Waning Crescent
Aug 25
New
Sep 2
First Quarter
Sep 8
Full
Sep 15
Last Quarter

Today's Extremes

State Highs State Lows

Community

WunderPhotos

Upload Photos

1,746,396 photos uploaded!

WunderBlogs® & News

By Dr. Jeff Masters
Director of Meteorology, Weather Underground
By Kari Strenfel
Meteorologist, Weather Underground
By Christopher C. Burt
Weather Historian, Weather Underground
August 23, 2014
August 23, 2014
August 23, 2014

Nearby

Snow Depth

Station Depth Elevation
Cole Creek 1 in 7850 ft
Burnt Mountain 0 in 5880 ft
White Mill 2 in 8700 ft
Northeast Entrance 0 in 7350 ft
Placer Basin 0 in 8830 ft

Earthquake Activity

City Distance Mag. Time & Date
No recent earthquake activity has been reported nearby.
Minimum magnitude displayed is 2.5.

Coastal Water Temperatures

Place Temperature
No Stations Reporting

Nearby Weather Stations